Time;durP1;ratioP1;P1;durP2;ratioP2;P2;SDS_P1;SDS_P2;PMS_P1;PMS_P2;Temp;Humidity;BMP_temperature;BMP_pressure;BME280_temperature;BME280_humidity;BME280_pressure;Samples;Min_cycle;Max_cycle;Signal;HPM_P1;HPM_P2
2023/05/16 00:00:57;;;;;;;11.48;10.43;;;16.60;63.40;;;;;;946948;148;27332;-76
2023/05/16 00:03:21;;;;;;;11.15;10.13;;;16.70;63.50;;;;;;946773;149;27449;-76
2023/05/16 00:05:49;;;;;;;11.40;10.30;;;16.60;63.50;;;;;;946429;148;27362;-76
2023/05/16 00:08:14;;;;;;;12.03;10.78;;;16.60;63.50;;;;;;929002;151;27472;-76
2023/05/16 00:10:41;;;;;;;12.82;10.28;;;16.60;63.50;;;;;;946459;149;27399;-76
2023/05/16 00:13:08;;;;;;;11.90;10.70;;;16.60;63.60;;;;;;947272;148;27349;-76
2023/05/16 00:15:34;;;;;;;13.35;11.25;;;16.60;63.60;;;;;;947654;148;27458;-76
2023/05/16 00:18:01;;;;;;;12.10;10.80;;;16.60;63.80;;;;;;931555;151;27401;-76
2023/05/16 00:20:28;;;;;;;11.93;10.73;;;16.50;63.80;;;;;;950273;148;27334;-76
2023/05/16 00:22:54;;;;;;;11.25;10.15;;;16.50;63.90;;;;;;949848;148;27268;-76
2023/05/16 00:25:21;;;;;;;12.65;11.28;;;16.50;63.90;;;;;;927356;148;27419;-76
2023/05/16 00:27:47;;;;;;;11.88;10.58;;;16.50;63.90;;;;;;922806;153;27518;-76
2023/05/16 00:30:14;;;;;;;13.47;12.17;;;16.50;64.10;;;;;;921331;153;27489;-76
2023/05/16 00:32:40;;;;;;;13.68;11.35;;;16.40;64.10;;;;;;925918;151;27420;-76
2023/05/16 00:35:09;;;;;;;12.35;11.05;;;16.50;64.20;;;;;;925747;150;27342;-76
2023/05/16 00:37:34;;;;;;;13.35;11.80;;;16.40;64.30;;;;;;924407;153;27392;-76
2023/05/16 00:40:00;;;;;;;14.68;12.78;;;16.40;64.40;;;;;;925320;153;27392;-76
2023/05/16 00:42:27;;;;;;;14.80;12.00;;;16.40;64.40;;;;;;923524;153;27367;-76
2023/05/16 00:44:53;;;;;;;14.47;12.20;;;16.40;64.50;;;;;;924486;153;27476;-76
2023/05/16 00:47:20;;;;;;;13.10;11.80;;;16.40;64.60;;;;;;922869;153;27411;-76
2023/05/16 00:49:46;;;;;;;14.38;12.58;;;16.40;64.70;;;;;;924814;153;27473;-76
2023/05/16 00:52:13;;;;;;;13.90;12.45;;;16.40;64.60;;;;;;922916;153;27346;-76
2023/05/16 00:54:40;;;;;;;13.75;12.40;;;16.40;64.70;;;;;;922841;153;27372;-76
2023/05/16 00:57:07;;;;;;;14.25;12.63;;;16.30;64.60;;;;;;925427;153;27332;-76
2023/05/16 00:59:33;;;;;;;13.70;12.10;;;16.30;64.60;;;;;;926681;153;27466;-76
2023/05/16 01:01:59;;;;;;;13.43;12.07;;;16.30;64.70;;;;;;926262;153;27377;-76
2023/05/16 01:04:26;;;;;;;15.27;13.67;;;16.20;64.60;;;;;;922597;153;27435;-76
2023/05/16 01:06:54;;;;;;;14.60;12.87;;;16.20;64.80;;;;;;923576;153;27435;-76
2023/05/16 01:09:20;;;;;;;14.15;12.65;;;16.20;65.00;;;;;;922141;153;27481;-76
2023/05/16 01:11:51;;;;;;;13.98;12.47;;;16.10;65.10;;;;;;921948;153;27458;-76
2023/05/16 01:14:36;;;;;;;13.83;11.93;;;16.10;65.20;;;;;;923982;153;27368;-76
2023/05/16 01:17:40;;;;;;;14.70;13.20;;;16.00;65.20;;;;;;923249;153;27445;-76
2023/05/16 01:20:14;;;;;;;14.10;12.07;;;15.90;65.10;;;;;;925663;153;27368;-76
2023/05/16 01:22:47;;;;;;;14.10;12.47;;;15.90;65.10;;;;;;922055;153;27423;-76
2023/05/16 01:25:38;;;;;;;14.37;12.83;;;15.80;65.30;;;;;;921539;151;27439;-76
2023/05/16 01:28:05;;;;;;;15.47;13.03;;;15.60;65.40;;;;;;938583;150;27361;-76
2023/05/16 01:30:34;;;;;;;14.30;12.83;;;15.60;66.20;;;;;;938445;152;27403;-76
2023/05/16 01:33:01;;;;;;;14.00;12.60;;;15.50;65.70;;;;;;937719;150;27430;-76
2023/05/16 01:35:27;;;;;;;16.40;12.73;;;15.40;65.90;;;;;;938844;152;27365;-76
2023/05/16 01:37:54;;;;;;;14.77;13.20;;;15.30;66.20;;;;;;939065;150;27365;-76
2023/05/16 01:40:21;;;;;;;14.53;12.97;;;15.30;66.40;;;;;;938050;152;27338;-76
2023/05/16 01:42:47;;;;;;;15.23;13.20;;;15.20;66.60;;;;;;924060;155;27343;-76
2023/05/16 01:45:20;;;;;;;15.07;13.30;;;15.10;66.70;;;;;;920932;153;27362;-76
2023/05/16 01:47:47;;;;;;;15.77;12.30;;;15.00;66.80;;;;;;912932;155;27406;-76
2023/05/16 01:50:13;;;;;;;14.37;12.50;;;14.90;67.10;;;;;;937627;150;27477;-76
2023/05/16 01:52:58;;;;;;;14.17;12.67;;;14.90;67.30;;;;;;938233;150;27399;-76
2023/05/16 01:55:24;;;;;;;12.87;11.47;;;14.70;67.40;;;;;;938593;150;27284;-76
2023/05/16 01:57:51;;;;;;;14.60;13.10;;;14.60;67.40;;;;;;924752;152;27379;-76
2023/05/16 02:00:17;;;;;;;13.90;12.40;;;14.50;67.60;;;;;;937855;151;27400;-76
2023/05/16 02:02:44;;;;;;;14.80;12.80;;;14.50;68.00;;;;;;937544;152;27357;-76
2023/05/16 02:05:10;;;;;;;13.63;11.60;;;14.40;68.30;;;;;;938686;152;27348;-76
2023/05/16 02:07:37;;;;;;;13.90;12.40;;;14.30;68.60;;;;;;938526;152;27397;-76
2023/05/16 02:10:04;;;;;;;15.13;12.93;;;14.20;68.80;;;;;;938424;152;27521;-76
2023/05/16 02:12:30;;;;;;;13.73;12.20;;;14.20;69.10;;;;;;924423;152;27338;-76
2023/05/16 02:14:57;;;;;;;14.40;11.80;;;14.10;69.40;;;;;;925693;152;27336;-76
2023/05/16 02:17:23;;;;;;;14.40;12.90;;;14.10;69.60;;;;;;917054;153;27345;-76
2023/05/16 02:19:50;;;;;;;15.47;13.33;;;14.10;69.80;;;;;;938965;151;27340;-76
2023/05/16 02:22:17;;;;;;;15.53;13.83;;;14.00;69.90;;;;;;925793;152;27454;-76
2023/05/16 02:24:43;;;;;;;16.53;13.57;;;14.00;70.00;;;;;;937525;151;27325;-76
2023/05/16 02:27:10;;;;;;;15.83;13.77;;;13.90;70.20;;;;;;932158;149;27313;-76
2023/05/16 02:29:36;;;;;;;15.70;13.20;;;13.90;70.40;;;;;;934665;149;27431;-76
2023/05/16 02:32:03;;;;;;;16.07;14.37;;;13.90;70.50;;;;;;935052;149;27915;-76
2023/05/16 02:34:30;;;;;;;14.40;12.90;;;13.80;70.70;;;;;;934501;149;27359;-76
2023/05/16 02:36:56;;;;;;;17.00;14.63;;;13.80;70.80;;;;;;918314;152;27341;-76
2023/05/16 02:39:23;;;;;;;15.80;13.57;;;13.80;71.00;;;;;;934165;149;27374;-76
2023/05/16 02:41:49;;;;;;;17.10;13.70;;;13.70;71.10;;;;;;934727;150;27369;-76
2023/05/16 02:44:16;;;;;;;14.70;13.10;;;13.70;71.30;;;;;;918783;152;27424;-76
2023/05/16 02:46:43;;;;;;;16.37;13.37;;;13.70;71.40;;;;;;918509;152;27339;-76
2023/05/16 02:49:09;;;;;;;15.83;13.30;;;13.60;71.40;;;;;;927619;150;27347;-76
2023/05/16 02:51:36;;;;;;;15.33;12.73;;;13.50;71.50;;;;;;934784;150;27447;-76
2023/05/16 02:54:02;;;;;;;14.57;13.07;;;13.50;71.60;;;;;;911866;153;27371;-76
2023/05/16 02:56:29;;;;;;;14.60;13.10;;;13.50;71.80;;;;;;918254;152;27442;-76
2023/05/16 02:58:55;;;;;;;17.73;13.83;;;13.40;71.80;;;;;;912718;153;27339;-76
2023/05/16 03:01:22;;;;;;;16.83;13.57;;;13.40;72.00;;;;;;926753;152;27827;-76
2023/05/16 03:03:49;;;;;;;15.03;13.37;;;13.30;72.10;;;;;;926981;152;27409;-76
2023/05/16 03:06:15;;;;;;;16.07;14.23;;;13.30;72.30;;;;;;926000;152;27446;-76
2023/05/16 03:08:42;;;;;;;14.87;13.37;;;13.20;72.30;;;;;;934053;150;27416;-76
2023/05/16 03:11:08;;;;;;;16.83;13.73;;;13.20;72.60;;;;;;912065;153;27331;-76
2023/05/16 03:13:35;;;;;;;15.50;13.17;;;13.10;72.80;;;;;;934787;149;27384;-76
2023/05/16 03:16:02;;;;;;;16.93;14.03;;;13.10;73.00;;;;;;917987;152;27384;-76
2023/05/16 03:18:28;;;;;;;16.63;13.87;;;13.10;73.10;;;;;;927841;150;27275;-76
2023/05/16 03:20:56;;;;;;;15.67;14.07;;;13.00;73.20;;;;;;934184;149;27397;-76
2023/05/16 03:23:21;;;;;;;17.17;14.23;;;13.00;73.50;;;;;;932281;149;27461;-76
2023/05/16 03:25:48;;;;;;;19.23;15.00;;;13.00;73.80;;;;;;926849;152;27449;-76
2023/05/16 03:28:15;;;;;;;20.00;16.03;;;13.00;74.00;;;;;;924634;154;27411;-76
2023/05/16 03:30:41;;;;;;;17.97;15.17;;;13.00;74.10;;;;;;937927;152;27436;-76
2023/05/16 03:33:08;;;;;;;17.73;15.10;;;12.90;74.30;;;;;;938052;152;27438;-76
2023/05/16 03:35:35;;;;;;;15.60;13.90;;;12.90;74.50;;;;;;938572;150;27441;-76
2023/05/16 03:38:01;;;;;;;18.87;14.53;;;12.90;74.60;;;;;;938585;152;27392;-76
2023/05/16 03:40:28;;;;;;;15.50;13.63;;;12.90;74.60;;;;;;938888;152;27934;-76
2023/05/16 03:42:54;;;;;;;15.47;13.93;;;12.90;74.80;;;;;;938750;152;27352;-76
2023/05/16 03:45:21;;;;;;;18.43;14.50;;;12.90;75.00;;;;;;938504;152;27353;-76
2023/05/16 03:47:50;;;;;;;19.67;15.90;;;12.90;75.30;;;;;;914313;155;27394;-76
2023/05/16 03:50:16;;;;;;;16.63;14.77;;;12.90;75.70;;;;;;938527;151;27326;-76
2023/05/16 03:52:43;;;;;;;16.80;14.67;;;12.90;76.20;;;;;;938518;152;27423;-76
2023/05/16 03:55:13;;;;;;;16.83;14.50;;;12.90;76.40;;;;;;912689;154;27386;-76
2023/05/16 03:57:40;;;;;;;20.03;15.77;;;13.00;76.70;;;;;;938236;151;27376;-76
2023/05/16 04:00:04;;;;;;;16.80;14.80;;;13.10;77.00;;;;;;933593;152;27417;-76
2023/05/16 04:02:29;;;;;;;14.87;13.27;;;13.10;77.10;;;;;;921774;153;27323;-76
2023/05/16 04:04:56;;;;;;;15.87;13.40;;;13.20;77.30;;;;;;934774;152;27783;-76
2023/05/16 04:07:23;;;;;;;15.87;13.33;;;13.30;77.30;;;;;;912500;156;27394;-76
2023/05/16 04:09:49;;;;;;;14.83;13.00;;;13.40;77.40;;;;;;912772;154;27539;-76
2023/05/16 04:12:16;;;;;;;14.43;12.90;;;13.50;76.70;;;;;;917964;152;27478;-76
2023/05/16 04:14:42;;;;;;;15.40;13.80;;;13.60;77.40;;;;;;934764;153;27667;-76
2023/05/16 04:17:10;;;;;;;18.33;15.20;;;13.70;77.40;;;;;;920188;152;27503;-76
2023/05/16 04:19:35;;;;;;;16.17;14.37;;;13.80;77.40;;;;;;938660;151;27343;-76
2023/05/16 04:22:02;;;;;;;16.17;14.20;;;13.90;77.40;;;;;;938446;152;27426;-76
2023/05/16 04:24:29;;;;;;;15.30;13.73;;;14.00;77.40;;;;;;912693;156;27391;-76
2023/05/16 04:26:55;;;;;;;17.02;13.35;;;14.10;77.40;;;;;;913782;153;27474;-76
2023/05/16 04:29:22;;;;;;;13.80;12.37;;;14.10;77.20;;;;;;915953;153;27382;-76
2023/05/16 04:31:48;;;;;;;16.50;12.87;;;14.20;77.10;;;;;;926500;152;27354;-76
2023/05/16 04:34:15;;;;;;;13.70;12.25;;;14.30;77.10;;;;;;912201;153;27331;-76
2023/05/16 04:36:42;;;;;;;14.83;13.30;;;14.40;76.90;;;;;;927136;152;27387;-76
2023/05/16 04:39:08;;;;;;;15.08;13.28;;;14.40;76.90;;;;;;927312;152;27397;-76
2023/05/16 04:41:35;;;;;;;14.27;12.77;;;14.50;76.90;;;;;;934654;149;27388;-76
2023/05/16 04:44:05;;;;;;;16.30;14.63;;;14.60;76.90;;;;;;934292;149;27442;-76
2023/05/16 04:46:28;;;;;;;15.73;13.77;;;14.60;76.90;;;;;;911122;152;27490;-76
2023/05/16 04:48:55;;;;;;;15.60;13.53;;;14.70;76.90;;;;;;934842;149;27360;-76
2023/05/16 04:51:21;;;;;;;14.20;12.80;;;14.70;76.70;;;;;;934486;149;27365;-76
2023/05/16 04:53:48;;;;;;;15.30;13.60;;;14.80;76.70;;;;;;934684;149;27393;-76
2023/05/16 04:56:14;;;;;;;13.15;11.78;;;14.90;76.70;;;;;;913528;153;27315;-76
2023/05/16 04:58:41;;;;;;;16.48;13.50;;;14.90;76.60;;;;;;927199;152;27363;-76
2023/05/16 05:01:08;;;;;;;16.42;14.45;;;15.00;76.60;;;;;;927107;152;27379;-76
2023/05/16 05:03:35;;;;;;;15.80;14.10;;;15.10;76.70;;;;;;934633;149;27407;-76
2023/05/16 05:06:01;;;;;;;16.52;14.55;;;15.10;76.80;;;;;;932272;149;27344;-76
2023/05/16 05:08:30;;;;;;;16.90;14.55;;;15.10;76.80;;;;;;918236;152;27317;-76
2023/05/16 05:10:54;;;;;;;16.82;14.95;;;15.20;76.80;;;;;;927124;150;27419;-76
2023/05/16 05:13:21;;;;;;;15.78;14.07;;;15.30;76.90;;;;;;911717;153;27459;-76
2023/05/16 05:15:49;;;;;;;16.23;14.50;;;15.30;76.80;;;;;;934596;149;27402;-76
2023/05/16 05:18:14;;;;;;;16.12;13.62;;;15.30;76.60;;;;;;933698;149;27270;-76
2023/05/16 05:20:40;;;;;;;17.12;14.30;;;15.40;76.50;;;;;;934697;149;27379;-77
2023/05/16 05:23:07;;;;;;;14.33;12.82;;;15.50;76.50;;;;;;934288;149;27364;-76
2023/05/16 05:25:33;;;;;;;14.98;13.48;;;15.60;76.40;;;;;;933515;149;27390;-76
2023/05/16 05:28:00;;;;;;;14.77;12.30;;;15.60;76.20;;;;;;934502;149;27318;-76
2023/05/16 05:30:27;;;;;;;15.23;12.30;;;15.60;76.20;;;;;;934915;149;27313;-76
2023/05/16 05:32:53;;;;;;;14.45;12.73;;;15.70;76.10;;;;;;934699;149;27344;-76
2023/05/16 05:35:20;;;;;;;14.63;13.13;;;15.70;75.90;;;;;;934918;149;27335;-76
2023/05/16 05:37:46;;;;;;;13.75;12.35;;;15.70;75.70;;;;;;913121;152;27426;-76
2023/05/16 05:40:13;;;;;;;14.18;12.65;;;15.80;75.70;;;;;;919256;152;27367;-76
2023/05/16 05:42:40;;;;;;;16.32;14.20;;;15.80;75.70;;;;;;919759;152;27381;-77
2023/05/16 05:45:06;;;;;;;17.07;14.23;;;15.90;75.70;;;;;;912098;153;27372;-76
2023/05/16 05:47:33;;;;;;;16.00;14.35;;;15.90;75.70;;;;;;912202;153;27418;-77
2023/05/16 05:49:59;;;;;;;13.55;12.15;;;16.00;75.70;;;;;;926968;152;27455;-76
2023/05/16 05:52:27;;;;;;;15.93;13.70;;;16.00;75.60;;;;;;927310;152;27315;-76
2023/05/16 05:54:53;;;;;;;14.85;13.35;;;16.10;75.70;;;;;;927313;152;27394;-77
2023/05/16 05:57:20;;;;;;;13.05;11.75;;;16.10;75.50;;;;;;927363;152;27503;-76
2023/05/16 05:59:46;;;;;;;13.60;12.30;;;16.10;75.30;;;;;;912277;153;27377;-76
2023/05/16 06:02:12;;;;;;;14.63;12.10;;;16.10;75.10;;;;;;917565;153;27310;-76
2023/05/16 06:04:41;;;;;;;13.88;11.70;;;16.10;75.00;;;;;;916124;153;27381;-77
2023/05/16 06:07:06;;;;;;;14.10;12.70;;;16.10;75.00;;;;;;917441;153;27474;-77
2023/05/16 06:09:32;;;;;;;15.03;12.25;;;16.20;75.00;;;;;;912952;153;27501;-76
2023/05/16 06:11:59;;;;;;;13.53;12.10;;;16.10;74.80;;;;;;935104;149;27322;-76
2023/05/16 06:14:25;;;;;;;13.87;11.93;;;16.10;75.00;;;;;;917777;152;27432;-76
2023/05/16 06:16:52;;;;;;;14.55;12.95;;;16.10;75.00;;;;;;933617;149;27336;-76
2023/05/16 06:19:19;;;;;;;13.55;12.00;;;16.10;75.10;;;;;;927036;152;27424;-76
2023/05/16 06:21:45;;;;;;;12.78;11.48;;;16.10;75.20;;;;;;920157;152;27800;-76
2023/05/16 06:24:12;;;;;;;12.93;11.60;;;16.10;75.30;;;;;;935219;149;27830;-76
2023/05/16 06:26:38;;;;;;;16.35;13.00;;;16.10;75.30;;;;;;935069;150;27370;-76
2023/05/16 06:29:05;;;;;;;12.13;10.83;;;16.10;75.30;;;;;;949803;147;27486;-77
2023/05/16 06:31:31;;;;;;;11.05;9.98;;;16.10;75.30;;;;;;951531;148;27912;-77
2023/05/16 06:33:58;;;;;;;10.03;9.03;;;16.10;75.30;;;;;;936000;150;27320;-76
2023/05/16 06:36:25;;;;;;;8.33;7.53;;;16.10;75.10;;;;;;951705;148;27790;-77
2023/05/16 06:38:51;;;;;;;8.35;6.62;;;16.10;74.60;;;;;;932475;151;27476;-77
2023/05/16 06:41:18;;;;;;;5.65;4.97;;;16.00;74.50;;;;;;934781;150;27359;-76
2023/05/16 06:43:45;;;;;;;4.90;4.50;;;16.00;74.10;;;;;;951514;148;27307;-76
2023/05/16 06:46:11;;;;;;;3.83;3.53;;;15.90;73.90;;;;;;934991;150;27338;-76
2023/05/16 06:48:38;;;;;;;3.30;3.10;;;15.90;73.90;;;;;;935840;150;27502;-77
2023/05/16 06:51:04;;;;;;;4.10;3.70;;;15.80;73.70;;;;;;952147;148;27350;-76
2023/05/16 06:53:31;;;;;;;2.90;2.67;;;15.80;73.70;;;;;;952214;148;27315;-77
2023/05/16 06:55:57;;;;;;;3.00;2.70;;;15.70;73.70;;;;;;941270;150;27445;-77
2023/05/16 06:58:24;;;;;;;2.98;2.70;;;15.70;73.60;;;;;;932688;150;27395;-77
2023/05/16 07:00:51;;;;;;;3.50;2.60;;;15.60;73.70;;;;;;951660;148;27808;-76
2023/05/16 07:03:17;;;;;;;3.13;2.87;;;15.60;73.70;;;;;;951848;148;27319;-77
2023/05/16 07:05:44;;;;;;;2.67;2.47;;;15.60;73.80;;;;;;951746;148;27652;-76
2023/05/16 07:08:11;;;;;;;2.90;2.70;;;15.50;73.90;;;;;;936325;150;27391;-77
2023/05/16 07:10:37;;;;;;;2.83;2.63;;;15.50;74.00;;;;;;932062;151;27431;-76
2023/05/16 07:13:03;;;;;;;3.50;2.67;;;15.50;74.00;;;;;;949608;151;27347;-76
2023/05/16 07:15:30;;;;;;;2.67;2.47;;;15.60;74.20;;;;;;949062;151;27400;-77
2023/05/16 07:17:57;;;;;;;2.90;2.70;;;15.50;74.10;;;;;;935822;150;27455;-76
2023/05/16 07:20:23;;;;;;;2.70;2.50;;;15.50;74.20;;;;;;934483;151;27385;-77
2023/05/16 07:22:50;;;;;;;3.13;2.60;;;15.50;74.30;;;;;;951587;148;27452;-76
2023/05/16 07:25:17;;;;;;;2.97;2.47;;;15.60;74.50;;;;;;951652;147;27313;-76
2023/05/16 07:27:43;;;;;;;2.70;2.50;;;15.60;74.50;;;;;;951845;148;27315;-76
2023/05/16 07:30:10;;;;;;;3.35;3.08;;;15.60;74.50;;;;;;935958;149;27354;-76
2023/05/16 07:32:36;;;;;;;3.08;2.77;;;15.60;74.50;;;;;;934987;149;27365;-76
2023/05/16 07:35:03;;;;;;;2.75;2.55;;;15.60;74.40;;;;;;918522;152;27403;-76
2023/05/16 07:37:30;;;;;;;3.05;2.67;;;15.70;74.40;;;;;;917794;152;27427;-76
2023/05/16 07:39:56;;;;;;;2.97;2.57;;;15.70;74.40;;;;;;918670;152;27833;-77
2023/05/16 07:42:23;;;;;;;2.58;2.35;;;15.70;74.60;;;;;;934874;149;27444;-76
2023/05/16 07:44:49;;;;;;;2.83;2.53;;;15.70;74.60;;;;;;935439;149;27384;-76
2023/05/16 07:47:16;;;;;;;3.30;2.70;;;15.80;74.60;;;;;;934926;150;27374;-76
2023/05/16 07:49:43;;;;;;;2.95;2.75;;;15.80;74.50;;;;;;935091;149;27338;-77
2023/05/16 07:52:09;;;;;;;2.95;2.75;;;15.90;74.30;;;;;;918294;152;27384;-77
2023/05/16 07:54:36;;;;;;;2.70;2.33;;;15.90;74.00;;;;;;934673;150;27439;-77
2023/05/16 07:57:02;;;;;;;3.45;2.47;;;15.90;74.00;;;;;;918707;152;27389;-76
2023/05/16 07:59:29;;;;;;;2.58;2.37;;;15.90;74.00;;;;;;934425;149;27291;-76
2023/05/16 08:01:56;;;;;;;2.52;2.33;;;15.90;73.90;;;;;;911075;152;27358;-75
2023/05/16 08:04:22;;;;;;;2.40;2.20;;;16.00;73.90;;;;;;918244;152;27460;-75
2023/05/16 08:06:49;;;;;;;2.52;2.33;;;15.90;73.60;;;;;;911895;153;27368;-76
2023/05/16 08:09:15;;;;;;;2.00;1.90;;;16.00;73.60;;;;;;935482;149;27380;-75
2023/05/16 08:11:44;;;;;;;2.27;2.17;;;16.00;73.20;;;;;;918823;152;27324;-75
2023/05/16 08:14:08;;;;;;;2.67;1.85;;;16.00;73.00;;;;;;932584;149;27347;-75
2023/05/16 08:16:35;;;;;;;2.33;2.12;;;16.00;72.90;;;;;;912439;153;27427;-76
2023/05/16 08:19:02;;;;;;;2.30;2.10;;;15.90;72.80;;;;;;934696;150;27456;-76
2023/05/16 08:21:29;;;;;;;1.92;1.82;;;15.90;72.80;;;;;;933775;149;27354;-76
2023/05/16 08:23:55;;;;;;;1.72;1.62;;;15.90;72.90;;;;;;934938;149;27405;-75
2023/05/16 08:26:21;;;;;;;1.80;1.50;;;15.80;72.50;;;;;;911379;152;27383;-76
2023/05/16 08:28:48;;;;;;;1.02;1.00;;;15.80;72.10;;;;;;929519;149;27398;-75
2023/05/16 08:31:15;;;;;;;2.33;0.87;;;15.80;71.70;;;;;;952079;148;27312;-76
2023/05/16 08:33:41;;;;;;;1.40;0.83;;;15.70;71.40;;;;;;935439;150;27430;-75
2023/05/16 08:36:08;;;;;;;0.90;0.70;;;15.60;71.00;;;;;;952144;147;27391;-75
2023/05/16 08:38:34;;;;;;;2.27;0.80;;;15.50;70.40;;;;;;934985;150;27400;-75
2023/05/16 08:41:01;;;;;;;1.83;1.03;;;15.40;70.30;;;;;;938595;150;27357;-76
2023/05/16 08:43:27;;;;;;;1.23;1.13;;;15.30;70.20;;;;;;949800;148;27421;-75
2023/05/16 08:45:54;;;;;;;1.20;0.80;;;15.20;70.30;;;;;;950809;148;27370;-76
2023/05/16 08:48:21;;;;;;;2.07;1.00;;;15.10;70.40;;;;;;934651;151;27469;-76
2023/05/16 08:50:47;;;;;;;4.47;1.40;;;15.10;71.30;;;;;;935520;150;27485;-76
2023/05/16 08:53:14;;;;;;;1.20;1.10;;;15.00;70.60;;;;;;951163;148;27330;-76
2023/05/16 08:55:40;;;;;;;1.10;1.07;;;15.00;71.70;;;;;;951595;148;27369;-76
2023/05/16 08:58:07;;;;;;;2.90;1.20;;;15.00;71.20;;;;;;952232;147;27414;-76
2023/05/16 09:00:34;;;;;;;1.10;0.90;;;15.00;71.40;;;;;;951459;148;27467;-76
2023/05/16 09:03:00;;;;;;;3.20;1.10;;;15.00;71.50;;;;;;933767;150;27352;-76
2023/05/16 09:05:27;;;;;;;1.23;1.13;;;15.10;71.80;;;;;;951458;148;27353;-76
2023/05/16 09:07:53;;;;;;;3.87;1.27;;;15.10;72.00;;;;;;951615;148;27296;-76
2023/05/16 09:10:20;;;;;;;0.70;0.70;;;15.20;72.10;;;;;;951983;148;27763;-76
2023/05/16 09:12:47;;;;;;;1.23;1.13;;;15.30;72.30;;;;;;952323;148;27375;-76
2023/05/16 09:15:13;;;;;;;1.40;1.00;;;15.40;72.00;;;;;;951842;148;27298;-76
2023/05/16 09:17:40;;;;;;;1.97;1.13;;;15.50;71.50;;;;;;952169;148;27327;-76
2023/05/16 09:20:13;;;;;;;2.08;1.35;;;15.60;71.20;;;;;;950859;148;27471;-76
2023/05/16 09:22:39;;;;;;;1.15;1.00;;;15.70;71.00;;;;;;950960;147;27363;-76
2023/05/16 09:25:06;;;;;;;7.95;1.80;;;15.80;70.80;;;;;;951805;148;27458;-76
2023/05/16 09:27:32;;;;;;;1.85;1.20;;;15.90;70.70;;;;;;954025;147;27310;-76
2023/05/16 09:29:59;;;;;;;1.30;1.20;;;16.00;70.60;;;;;;929841;151;27410;-76
2023/05/16 09:32:25;;;;;;;2.17;1.40;;;16.10;70.10;;;;;;912024;153;27405;-75
2023/05/16 09:34:52;;;;;;;2.12;1.30;;;16.20;69.90;;;;;;935123;150;27263;-76
2023/05/16 09:37:19;;;;;;;2.47;1.42;;;16.30;69.80;;;;;;912173;153;27416;-76
2023/05/16 09:39:46;;;;;;;2.47;1.17;;;16.50;69.40;;;;;;935015;149;27286;-75
2023/05/16 09:42:12;;;;;;;1.52;1.27;;;16.60;69.20;;;;;;912181;151;27412;-75
2023/05/16 09:44:38;;;;;;;1.37;1.17;;;16.80;68.90;;;;;;936300;149;27349;-75
2023/05/16 09:47:05;;;;;;;1.85;1.20;;;16.90;67.70;;;;;;911876;152;27362;-76
2023/05/16 09:49:32;;;;;;;1.60;1.40;;;17.00;67.20;;;;;;917817;152;27331;-75
2023/05/16 09:52:04;;;;;;;4.65;1.70;;;17.10;67.30;;;;;;924683;151;27375;-75
2023/05/16 09:54:31;;;;;;;2.77;1.45;;;17.20;66.90;;;;;;912342;153;27417;-76
2023/05/16 09:56:57;;;;;;;3.37;1.70;;;17.30;66.80;;;;;;934444;150;27411;-75
2023/05/16 09:59:24;;;;;;;3.83;1.52;;;17.40;65.80;;;;;;917779;152;27320;-76
2023/05/16 10:01:50;;;;;;;3.98;1.20;;;17.40;65.60;;;;;;912942;153;27307;-76
2023/05/16 10:04:17;;;;;;;1.52;1.27;;;17.50;65.30;;;;;;934816;149;27710;-75
2023/05/16 10:06:44;;;;;;;3.30;1.82;;;17.50;65.30;;;;;;919070;152;27503;-75
2023/05/16 10:09:10;;;;;;;2.05;1.65;;;17.50;65.30;;;;;;911885;153;27505;-76
2023/05/16 10:11:37;;;;;;;2.50;1.50;;;17.60;65.20;;;;;;926913;151;27306;-76
2023/05/16 10:14:03;;;;;;;2.00;1.42;;;17.60;65.10;;;;;;934443;149;27364;-76
2023/05/16 10:16:30;;;;;;;4.47;2.12;;;17.70;64.90;;;;;;934604;149;27377;-76
2023/05/16 10:18:57;;;;;;;1.82;1.40;;;17.70;64.60;;;;;;911746;153;27336;-76
2023/05/16 10:21:23;;;;;;;3.08;1.95;;;17.70;64.50;;;;;;926133;152;27426;-76
2023/05/16 10:23:50;;;;;;;2.58;1.40;;;17.80;64.60;;;;;;919578;152;27379;-76
2023/05/16 10:26:16;;;;;;;3.12;1.55;;;17.80;64.40;;;;;;919027;152;27387;-76
2023/05/16 10:28:43;;;;;;;3.92;1.75;;;17.90;64.40;;;;;;925070;150;27406;-76
2023/05/16 10:31:10;;;;;;;1.65;1.42;;;17.90;64.50;;;;;;923548;150;27873;-76
2023/05/16 10:33:36;;;;;;;5.30;1.80;;;18.10;64.50;;;;;;934476;150;27349;-76
2023/05/16 10:36:04;;;;;;;4.35;1.50;;;18.20;64.20;;;;;;935915;150;27441;-76
2023/05/16 10:38:29;;;;;;;3.92;1.22;;;18.30;64.00;;;;;;949389;151;27473;-76
2023/05/16 10:40:56;;;;;;;3.58;1.47;;;18.50;64.00;;;;;;931953;151;27395;-76
2023/05/16 10:43:25;;;;;;;2.95;1.70;;;18.60;63.60;;;;;;932664;151;27405;-76
2023/05/16 10:45:57;;;;;;;2.67;1.90;;;18.70;63.10;;;;;;931535;151;27342;-76
2023/05/16 10:48:30;;;;;;;2.72;1.50;;;18.80;62.90;;;;;;948447;151;27763;-76
2023/05/16 10:50:57;;;;;;;2.92;1.70;;;19.00;62.80;;;;;;949215;151;27358;-76
2023/05/16 10:53:29;;;;;;;3.30;1.47;;;19.10;62.90;;;;;;949284;151;27430;-76
2023/05/16 10:55:59;;;;;;;2.52;1.45;;;19.20;63.00;;;;;;949513;151;27369;-76
2023/05/16 10:58:34;;;;;;;4.47;1.80;;;19.40;62.70;;;;;;951414;148;27378;-76
2023/05/16 11:01:22;;;;;;;2.98;1.55;;;19.60;61.80;;;;;;951797;148;27344;-76
2023/05/16 11:03:58;;;;;;;2.83;1.40;;;19.80;61.40;;;;;;934317;150;27376;-77
2023/05/16 11:06:33;;;;;;;2.65;1.52;;;20.00;61.00;;;;;;952049;148;27351;-76
2023/05/16 11:09:15;;;;;;;2.58;1.10;;;20.10;60.20;;;;;;934089;150;27439;-76
2023/05/16 11:11:47;;;;;;;2.35;1.40;;;20.30;59.80;;;;;;934463;150;27403;-76
2023/05/16 11:14:30;;;;;;;2.08;1.40;;;20.50;59.60;;;;;;935195;150;27452;-76
2023/05/16 11:17:20;;;;;;;2.30;1.25;;;20.60;59.00;;;;;;934102;150;27462;-76
2023/05/16 11:19:57;;;;;;;2.77;1.65;;;20.70;59.00;;;;;;934169;150;27501;-77
2023/05/16 11:22:22;;;;;;;3.90;1.27;;;20.80;58.50;;;;;;934440;150;27537;-76
2023/05/16 11:24:54;;;;;;;3.22;1.20;;;20.90;58.40;;;;;;951350;148;27353;-76
2023/05/16 11:27:23;;;;;;;3.20;1.25;;;20.80;57.60;;;;;;951632;148;27386;-76
2023/05/16 11:29:49;;;;;;;5.53;1.47;;;20.80;57.50;;;;;;934367;150;27352;-76
2023/05/16 11:32:16;;;;;;;2.37;1.30;;;20.70;57.30;;;;;;924454;150;27837;-76
2023/05/16 11:34:44;;;;;;;4.40;1.50;;;20.60;57.00;;;;;;931982;149;27254;-77
2023/05/16 11:37:09;;;;;;;4.42;1.30;;;20.50;57.10;;;;;;927023;152;27386;-76
2023/05/16 11:39:36;;;;;;;2.67;1.35;;;20.40;57.40;;;;;;926990;152;27804;-76
2023/05/16 11:42:03;;;;;;;2.87;1.60;;;20.40;57.30;;;;;;927159;151;27386;-76
2023/05/16 11:44:29;;;;;;;2.65;1.40;;;20.40;57.20;;;;;;926692;151;27346;-76
2023/05/16 11:46:55;;;;;;;3.58;1.35;;;20.30;57.00;;;;;;913658;152;27320;-76
2023/05/16 11:49:22;;;;;;;3.55;1.22;;;20.30;57.00;;;;;;910591;152;27371;-77
2023/05/16 11:51:51;;;;;;;2.22;1.72;;;20.20;57.00;;;;;;912643;152;27368;-76
2023/05/16 11:54:15;;;;;;;2.25;1.22;;;20.20;57.00;;;;;;918331;152;27385;-76
2023/05/16 11:56:42;;;;;;;3.40;1.50;;;20.20;57.10;;;;;;912621;153;27762;-77
2023/05/16 11:59:08;;;;;;;4.65;1.32;;;20.30;57.00;;;;;;918942;153;27401;-77
2023/05/16 12:01:36;;;;;;;1.57;1.30;;;20.30;56.70;;;;;;934689;150;27340;-77
2023/05/16 12:04:03;;;;;;;2.30;1.10;;;20.40;56.20;;;;;;918676;152;27753;-77
2023/05/16 12:06:30;;;;;;;2.37;1.17;;;20.40;56.00;;;;;;924323;152;27420;-77
2023/05/16 12:08:55;;;;;;;2.33;1.22;;;20.40;55.70;;;;;;912375;153;27536;-77
2023/05/16 12:11:22;;;;;;;2.90;1.37;;;20.40;55.60;;;;;;912547;153;27486;-77
2023/05/16 12:13:48;;;;;;;4.83;2.15;;;20.50;55.70;;;;;;926095;151;27344;-76
2023/05/16 12:16:15;;;;;;;1.50;1.22;;;20.50;55.30;;;;;;926545;152;27450;-76
2023/05/16 12:18:41;;;;;;;2.58;1.47;;;20.50;54.90;;;;;;927235;152;27339;-76
2023/05/16 12:21:08;;;;;;;2.37;1.20;;;20.50;54.80;;;;;;926611;151;27514;-76
2023/05/16 12:23:34;;;;;;;1.60;0.95;;;20.60;54.60;;;;;;927127;151;27422;-76
2023/05/16 12:26:05;;;;;;;1.92;1.12;;;20.60;54.50;;;;;;927172;152;27383;-76
2023/05/16 12:28:35;;;;;;;2.70;1.40;;;20.70;54.20;;;;;;925529;152;27464;-76
2023/05/16 12:31:00;;;;;;;2.77;1.22;;;20.70;53.80;;;;;;926715;152;27502;-76
2023/05/16 12:33:27;;;;;;;2.35;1.30;;;20.70;53.40;;;;;;926586;152;27515;-76
2023/05/16 12:35:53;;;;;;;2.40;1.10;;;20.70;53.40;;;;;;926700;151;27374;-76